createdAt,value
2019-02-16T00:01:30.838Z,20.20
2019-02-16T00:03:57.380Z,19.87
2019-02-16T00:06:24.211Z,22.40
2019-02-16T00:08:50.746Z,21.60
2019-02-16T00:11:17.588Z,22.13
2019-02-16T00:13:44.123Z,22.10
2019-02-16T00:16:10.661Z,22.20
2019-02-16T00:18:37.199Z,22.13
2019-02-16T00:21:04.449Z,22.47
2019-02-16T00:23:31.491Z,21.83
2019-02-16T00:25:58.027Z,21.70
2019-02-16T00:28:24.913Z,21.87
2019-02-16T00:30:51.707Z,22.27
2019-02-16T00:33:18.241Z,21.97
2019-02-16T00:35:44.775Z,22.97
2019-02-16T00:38:11.314Z,23.27
2019-02-16T00:40:38.161Z,22.10
2019-02-16T00:43:04.687Z,22.67
2019-02-16T00:45:31.227Z,22.20
2019-02-16T00:47:58.062Z,22.77
2019-02-16T00:50:24.600Z,22.67
2019-02-16T00:52:51.110Z,22.00
2019-02-16T00:55:17.769Z,23.00
2019-02-16T00:57:44.510Z,22.40
2019-02-16T01:00:11.350Z,22.13
2019-02-16T01:02:37.886Z,22.67
2019-02-16T01:05:04.425Z,23.00
2019-02-16T01:07:30.954Z,21.57
2019-02-16T01:09:57.490Z,22.73
2019-02-16T01:12:24.334Z,22.47
2019-02-16T01:14:50.971Z,21.80
2019-02-16T01:17:17.716Z,22.90
2019-02-16T01:19:44.240Z,21.63
2019-02-16T01:22:10.779Z,22.03
2019-02-16T01:24:37.697Z,21.90
2019-02-16T01:27:04.456Z,21.20
2019-02-16T01:29:30.998Z,21.10
2019-02-16T01:31:57.836Z,20.63
2019-02-16T01:34:24.372Z,21.77
2019-02-16T01:36:51.219Z,22.30
2019-02-16T01:39:17.744Z,22.27
2019-02-16T01:41:44.279Z,21.67
2019-02-16T01:44:10.820Z,22.23
2019-02-16T01:46:37.349Z,20.40
2019-02-16T01:49:04.192Z,21.27
2019-02-16T01:51:32.241Z,21.70
2019-02-16T01:53:59.104Z,20.83
2019-02-16T01:56:25.638Z,21.00
2019-02-16T01:58:52.170Z,20.23
2019-02-16T02:01:19.319Z,20.53
2019-02-16T02:03:45.859Z,20.73
2019-02-16T02:06:12.703Z,20.93
2019-02-16T02:08:39.234Z,20.93
2019-02-16T02:11:05.765Z,20.40
2019-02-16T02:13:32.609Z,20.23
2019-02-16T02:15:59.143Z,19.67
2019-02-16T02:18:25.789Z,19.80
2019-02-16T02:20:52.521Z,20.70
2019-02-16T02:23:19.055Z,19.10
2019-02-16T02:25:45.910Z,19.83
2019-02-16T02:28:12.427Z,21.50
2019-02-16T02:30:39.270Z,20.93
2019-02-16T02:33:05.809Z,20.53
2019-02-16T02:35:32.338Z,19.33
2019-02-16T02:37:59.264Z,20.27
2019-02-16T02:40:26.021Z,19.17
2019-02-16T02:42:52.557Z,18.63
2019-02-16T02:45:19.091Z,19.27
2019-02-16T02:47:45.630Z,19.03
2019-02-16T02:50:12.466Z,20.03
2019-02-16T02:52:39.354Z,20.17
2019-02-16T02:55:06.487Z,18.63
2019-02-16T02:57:33.305Z,18.93
2019-02-16T02:59:59.935Z,20.93
2019-02-16T03:02:26.674Z,18.70
2019-02-16T03:04:53.212Z,20.30
2019-02-16T03:07:19.743Z,20.33
2019-02-16T03:09:46.586Z,17.60
2019-02-16T03:12:13.121Z,19.70
2019-02-16T03:14:39.961Z,19.30
2019-02-16T03:17:06.497Z,20.00
2019-02-16T03:19:33.337Z,20.37
2019-02-16T03:22:02.622Z,18.80
2019-02-16T03:24:28.135Z,19.47
2019-02-16T03:26:54.794Z,19.17
2019-02-16T03:29:21.322Z,19.40
2019-02-16T03:31:47.883Z,19.93
2019-02-16T03:34:14.391Z,19.27
2019-02-16T03:36:40.928Z,19.53
2019-02-16T03:39:07.764Z,20.17
2019-02-16T03:41:34.300Z,18.20
2019-02-16T03:44:01.140Z,18.60
2019-02-16T03:46:27.674Z,18.97
2019-02-16T03:48:54.208Z,19.63
2019-02-16T03:51:21.053Z,19.60
2019-02-16T03:53:47.621Z,19.77
2019-02-16T03:56:14.123Z,18.37
2019-02-16T03:58:40.658Z,19.33
2019-02-16T04:01:07.188Z,18.63
2019-02-16T04:03:34.031Z,18.50
2019-02-16T04:06:00.567Z,18.57
2019-02-16T04:08:27.101Z,18.60
2019-02-16T04:10:53.639Z,19.27
2019-02-16T04:13:20.170Z,18.93
2019-02-16T04:15:47.012Z,18.93
2019-02-16T04:18:13.548Z,18.43
2019-02-16T04:20:40.083Z,18.47
2019-02-16T04:23:06.922Z,19.30
2019-02-16T04:25:33.763Z,20.10
2019-02-16T04:28:00.915Z,20.03
2019-02-16T04:30:27.449Z,18.57
2019-02-16T04:32:53.982Z,19.40
2019-02-16T04:35:20.515Z,19.07
2019-02-16T04:37:47.049Z,19.90
2019-02-16T04:40:13.890Z,18.23
2019-02-16T04:42:40.427Z,18.07
2019-02-16T04:45:06.960Z,17.70
2019-02-16T04:47:33.498Z,19.27
2019-02-16T04:50:00.028Z,18.67
2019-02-16T04:52:34.409Z,18.57
2019-02-16T04:54:54.940Z,18.80
2019-02-16T04:57:21.405Z,17.00
2019-02-16T04:59:48.136Z,18.93
2019-02-16T05:02:14.861Z,19.57
2019-02-16T05:04:41.385Z,19.13
2019-02-16T05:07:07.924Z,18.60
2019-02-16T05:09:34.765Z,20.30
2019-02-16T05:12:01.311Z,18.73
2019-02-16T05:14:28.141Z,18.20
2019-02-16T05:16:54.980Z,17.93
2019-02-16T05:19:21.514Z,17.87
2019-02-16T05:21:48.359Z,18.30
2019-02-16T05:24:14.893Z,18.43
2019-02-16T05:26:41.427Z,18.27
2019-02-16T05:29:08.267Z,18.10
2019-02-16T05:31:34.804Z,17.80
2019-02-16T05:34:01.643Z,18.33
2019-02-16T05:36:28.819Z,17.53
2019-02-16T05:38:55.663Z,17.30
2019-02-16T05:41:22.761Z,18.53
2019-02-16T05:43:49.319Z,18.00
2019-02-16T05:46:15.851Z,18.60
2019-02-16T05:48:42.694Z,17.70
2019-02-16T05:51:09.231Z,16.90
2019-02-16T05:53:36.070Z,18.27
2019-02-16T05:56:02.628Z,16.43
2019-02-16T05:58:29.227Z,16.83
2019-02-16T06:00:55.985Z,17.03
2019-02-16T06:03:22.590Z,17.70
2019-02-16T06:05:49.584Z,16.23
2019-02-16T06:08:16.507Z,16.57
2019-02-16T06:10:43.042Z,16.70
2019-02-16T06:13:09.886Z,17.73
2019-02-16T06:15:36.726Z,16.80
2019-02-16T06:18:03.567Z,17.67
2019-02-16T06:20:30.106Z,16.23
2019-02-16T06:23:03.738Z,16.47
2019-02-16T06:25:25.012Z,16.73
2019-02-16T06:27:51.857Z,18.17
2019-02-16T06:30:18.699Z,17.07
2019-02-16T06:32:45.228Z,16.10
2019-02-16T06:35:12.070Z,16.80
2019-02-16T06:37:38.607Z,15.47
2019-02-16T06:40:05.446Z,16.13
2019-02-16T06:42:32.290Z,16.47
2019-02-16T06:44:58.825Z,17.27
2019-02-16T06:47:25.361Z,16.00
2019-02-16T06:49:51.912Z,16.63
2019-02-16T06:52:18.776Z,16.10
2019-02-16T06:54:46.198Z,15.33
2019-02-16T06:57:12.730Z,16.57
2019-02-16T06:59:39.567Z,16.83
2019-02-16T07:02:06.174Z,15.53
2019-02-16T07:04:32.948Z,15.07
2019-02-16T07:06:59.786Z,15.93
2019-02-16T07:09:26.322Z,15.80
2019-02-16T07:11:52.853Z,15.97
2019-02-16T07:14:19.390Z,15.57
2019-02-16T07:16:45.921Z,14.97
2019-02-16T07:19:12.763Z,14.03
2019-02-16T07:21:39.302Z,15.07
2019-02-16T07:24:06.138Z,15.80
2019-02-16T07:26:32.676Z,14.47
2019-02-16T07:28:59.214Z,13.33
2019-02-16T07:31:26.049Z,14.10
2019-02-16T07:33:52.585Z,16.03
2019-02-16T07:36:19.123Z,14.07
2019-02-16T07:38:45.653Z,14.90
2019-02-16T07:41:12.187Z,13.73
2019-02-16T07:43:39.031Z,13.27
2019-02-16T07:46:05.574Z,13.87
2019-02-16T07:48:32.454Z,12.90
2019-02-16T07:50:59.246Z,13.80
2019-02-16T07:53:31.293Z,13.57
2019-02-16T07:55:54.162Z,32.00
2019-02-16T07:58:20.695Z,38.67
2019-02-16T08:00:47.544Z,35.20
2019-02-16T08:03:14.070Z,36.10
2019-02-16T08:05:40.609Z,34.97
2019-02-16T08:08:07.547Z,34.77
2019-02-16T08:10:34.304Z,34.00
2019-02-16T08:13:00.825Z,32.83
2019-02-16T08:15:27.360Z,26.33
2019-02-16T08:17:54.199Z,26.20
2019-02-16T08:20:21.045Z,22.70
2019-02-16T08:22:47.577Z,22.53
2019-02-16T08:25:14.109Z,22.30
2019-02-16T08:27:40.954Z,22.03
2019-02-16T08:30:07.792Z,22.67
2019-02-16T08:32:34.634Z,22.37
2019-02-16T08:35:01.188Z,21.50
2019-02-16T08:37:28.009Z,22.07
2019-02-16T08:39:54.551Z,20.27
2019-02-16T08:42:21.083Z,19.07
2019-02-16T08:44:47.923Z,19.80
2019-02-16T08:47:14.455Z,18.40
2019-02-16T08:49:41.299Z,18.43
2019-02-16T08:52:07.836Z,17.33
2019-02-16T08:54:34.372Z,16.90
2019-02-16T08:57:01.206Z,15.83
2019-02-16T08:59:28.050Z,15.33
2019-02-16T09:01:54.601Z,15.47
2019-02-16T09:04:21.117Z,16.20
2019-02-16T09:06:47.653Z,15.57
2019-02-16T09:09:14.494Z,14.40
2019-02-16T09:11:41.030Z,14.40
2019-02-16T09:14:07.869Z,15.43
2019-02-16T09:16:36.864Z,13.73
2019-02-16T09:19:02.784Z,14.57
2019-02-16T09:21:29.627Z,13.80
2019-02-16T09:23:59.052Z,13.57
2019-02-16T09:26:24.535Z,12.57
2019-02-16T09:28:51.069Z,12.33
2019-02-16T09:31:17.913Z,12.47
2019-02-16T09:33:44.449Z,13.13
2019-02-16T09:36:10.987Z,12.03
2019-02-16T09:38:37.533Z,12.10
2019-02-16T09:41:04.049Z,12.10
2019-02-16T09:43:30.585Z,11.67
2019-02-16T09:45:57.425Z,11.47
2019-02-16T09:48:23.960Z,12.47
2019-02-16T09:50:50.806Z,13.73
2019-02-16T09:53:17.335Z,13.77
2019-02-16T09:55:44.177Z,13.13
2019-02-16T09:58:11.023Z,12.17
2019-02-16T10:00:37.559Z,12.23
2019-02-16T10:03:04.088Z,12.60
2019-02-16T10:05:30.623Z,12.50
2019-02-16T10:07:57.161Z,11.73
2019-02-16T10:10:24.004Z,12.80
2019-02-16T10:12:50.535Z,11.33
2019-02-16T10:15:17.379Z,12.07
2019-02-16T10:17:44.216Z,12.20
2019-02-16T10:20:11.058Z,12.33
2019-02-16T10:22:37.595Z,12.87
2019-02-16T10:25:04.135Z,14.30
2019-02-16T10:27:30.660Z,13.50
2019-02-16T10:29:57.503Z,12.70
2019-02-16T10:32:24.040Z,11.73
2019-02-16T10:34:50.880Z,12.20
2019-02-16T10:37:17.413Z,11.77
2019-02-16T10:39:44.258Z,11.67
2019-02-16T10:42:10.795Z,10.70
2019-02-16T10:44:37.324Z,11.47
2019-02-16T10:47:03.858Z,10.67
2019-02-16T10:49:30.402Z,11.30
2019-02-16T10:51:56.932Z,10.37
2019-02-16T10:54:28.102Z,11.13
2019-02-16T10:56:52.433Z,11.33
2019-02-16T10:59:19.913Z,10.63
2019-02-16T11:01:46.754Z,10.63
2019-02-16T11:04:13.287Z,10.50
2019-02-16T11:06:39.823Z,10.30
2019-02-16T11:09:06.711Z,9.83
2019-02-16T11:11:33.504Z,9.13
2019-02-16T11:14:00.037Z,9.10
2019-02-16T11:16:26.879Z,9.30
2019-02-16T11:18:53.419Z,9.43
2019-02-16T11:21:19.953Z,9.60
2019-02-16T11:23:46.796Z,9.23
2019-02-16T11:26:13.328Z,9.17
2019-02-16T11:28:39.859Z,9.40
2019-02-16T11:31:06.438Z,9.10
2019-02-16T11:33:33.235Z,8.83
2019-02-16T11:36:00.079Z,8.93
2019-02-16T11:38:26.614Z,8.77
2019-02-16T11:40:53.145Z,8.67
2019-02-16T11:43:19.681Z,8.37
2019-02-16T11:45:46.215Z,8.87
2019-02-16T11:48:13.056Z,9.17
2019-02-16T11:50:39.595Z,9.67
2019-02-16T11:53:06.433Z,9.43
2019-02-16T11:55:32.970Z,12.15
2019-02-16T11:57:59.813Z,11.73
2019-02-16T12:00:26.650Z,12.90
2019-02-16T12:02:53.184Z,11.85
2019-02-16T12:05:19.723Z,12.82
2019-02-16T12:07:46.560Z,14.03
2019-02-16T12:10:13.095Z,17.35
2019-02-16T12:12:39.940Z,17.43
2019-02-16T12:15:06.536Z,17.57
2019-02-16T12:17:33.321Z,16.90
2019-02-16T12:20:00.346Z,16.33
2019-02-16T12:22:27.000Z,15.23
2019-02-16T12:25:04.970Z,13.50
2019-02-16T12:27:21.908Z,12.63
2019-02-16T12:29:48.456Z,11.63
2019-02-16T12:32:15.109Z,11.03
2019-02-16T12:34:41.819Z,10.40
2019-02-16T12:37:08.661Z,8.83
2019-02-16T12:39:35.501Z,8.53
2019-02-16T12:42:02.043Z,8.30
2019-02-16T12:44:28.573Z,10.03
2019-02-16T12:46:55.415Z,9.08
2019-02-16T12:49:22.561Z,9.20
2019-02-16T12:51:49.387Z,9.40
2019-02-16T12:54:16.563Z,8.93
2019-02-16T12:56:43.394Z,7.90
2019-02-16T12:59:09.928Z,8.53
2019-02-16T13:01:36.772Z,9.10
2019-02-16T13:04:03.329Z,27.50
2019-02-16T13:06:29.844Z,31.57
2019-02-16T13:08:56.377Z,25.80
2019-02-16T13:11:22.906Z,21.10
2019-02-16T13:13:49.761Z,19.80
2019-02-16T13:16:16.287Z,18.23
2019-02-16T13:18:42.820Z,16.00
2019-02-16T13:21:09.353Z,16.45
2019-02-16T13:23:35.886Z,15.47
2019-02-16T13:26:02.730Z,14.00
2019-02-16T13:28:29.262Z,14.63
2019-02-16T13:30:56.103Z,17.07
2019-02-16T13:33:22.639Z,16.13
2019-02-16T13:35:49.179Z,13.70
2019-02-16T13:38:16.015Z,13.70
2019-02-16T13:40:42.548Z,14.50
2019-02-16T13:43:09.086Z,13.37
2019-02-16T13:45:35.624Z,13.53
2019-02-16T13:48:02.458Z,13.30
2019-02-16T13:50:29.301Z,12.23
2019-02-16T13:52:55.836Z,12.60
2019-02-16T13:55:22.384Z,12.93
2019-02-16T13:57:48.909Z,12.67
2019-02-16T14:00:15.478Z,13.73
2019-02-16T14:02:42.285Z,13.13
2019-02-16T14:05:08.818Z,12.23
2019-02-16T14:07:35.656Z,12.50
2019-02-16T14:10:02.192Z,12.60
2019-02-16T14:12:28.742Z,11.77
2019-02-16T14:14:55.570Z,12.70
2019-02-16T14:17:22.410Z,13.53
2019-02-16T14:19:48.947Z,11.93
2019-02-16T14:22:15.796Z,13.80
2019-02-16T14:24:43.784Z,12.03
2019-02-16T14:27:10.392Z,12.70
2019-02-16T14:29:37.268Z,12.63
2019-02-16T14:32:04.086Z,12.17
2019-02-16T14:34:30.920Z,12.17
2019-02-16T14:36:57.760Z,12.73
2019-02-16T14:39:24.600Z,12.30
2019-02-16T14:41:51.440Z,12.63
2019-02-16T14:44:17.979Z,12.70
2019-02-16T14:46:44.821Z,12.13
2019-02-16T14:49:11.350Z,11.50
2019-02-16T14:51:38.198Z,12.07
2019-02-16T14:54:04.728Z,11.40
2019-02-16T14:56:31.571Z,10.73
2019-02-16T14:58:58.102Z,10.57
2019-02-16T15:01:24.640Z,10.20
2019-02-16T15:03:51.478Z,10.43
2019-02-16T15:06:18.013Z,9.60
2019-02-16T15:08:45.469Z,8.90
2019-02-16T15:11:12.004Z,9.23
2019-02-16T15:13:38.543Z,9.27
2019-02-16T15:16:05.384Z,8.80
2019-02-16T15:18:31.914Z,8.30
2019-02-16T15:20:58.760Z,8.40
2019-02-16T15:23:25.295Z,7.93
2019-02-16T15:26:00.454Z,7.77
2019-02-16T15:28:20.202Z,8.23
2019-02-16T15:30:47.043Z,8.60
2019-02-16T15:33:13.579Z,7.97
2019-02-16T15:35:40.419Z,8.10
2019-02-16T15:38:06.954Z,7.60
2019-02-16T15:40:33.800Z,7.63
2019-02-16T15:43:00.335Z,8.20
2019-02-16T15:45:26.864Z,7.73
2019-02-16T15:47:53.706Z,8.20
2019-02-16T15:50:20.240Z,7.60
2019-02-16T15:52:47.082Z,7.53
2019-02-16T15:55:13.620Z,7.60
2019-02-16T15:57:40.467Z,7.57
2019-02-16T16:00:07.062Z,8.00
2019-02-16T16:02:33.836Z,7.87
2019-02-16T16:05:00.678Z,8.07
2019-02-16T16:07:27.211Z,7.67
2019-02-16T16:09:53.746Z,8.50
2019-02-16T16:12:20.338Z,7.73
2019-02-16T16:14:47.133Z,7.67
2019-02-16T16:17:13.962Z,8.37
2019-02-16T16:19:40.499Z,7.87
2019-02-16T16:22:07.031Z,7.67
2019-02-16T16:24:33.569Z,8.30
2019-02-16T16:27:00.412Z,7.70
2019-02-16T16:29:27.249Z,7.90
2019-02-16T16:31:53.787Z,8.73
2019-02-16T16:34:20.319Z,7.70
2019-02-16T16:36:46.876Z,7.97
2019-02-16T16:39:13.695Z,7.67
2019-02-16T16:41:40.537Z,7.83
2019-02-16T16:44:07.110Z,8.30
2019-02-16T16:46:33.915Z,8.77
2019-02-16T16:49:00.447Z,8.77
2019-02-16T16:51:26.985Z,8.90
2019-02-16T16:53:53.827Z,8.80
2019-02-16T16:56:28.362Z,9.20
2019-02-16T16:58:48.739Z,8.27
2019-02-16T17:01:15.281Z,8.67
2019-02-16T17:03:42.113Z,8.23
2019-02-16T17:06:08.954Z,8.40
2019-02-16T17:08:35.797Z,8.97
2019-02-16T17:11:02.347Z,8.77
2019-02-16T17:13:28.865Z,8.53
2019-02-16T17:15:55.705Z,9.23
2019-02-16T17:18:22.546Z,8.47
2019-02-16T17:20:49.104Z,9.47
2019-02-16T17:23:15.620Z,9.47
2019-02-16T17:25:42.162Z,9.50
2019-02-16T17:28:08.689Z,9.20
2019-02-16T17:30:35.528Z,9.23
2019-02-16T17:33:02.063Z,9.20
2019-02-16T17:35:28.596Z,9.13
2019-02-16T17:37:55.137Z,10.43
2019-02-16T17:40:21.667Z,10.33
2019-02-16T17:42:48.506Z,10.37
2019-02-16T17:45:15.041Z,10.50
2019-02-16T17:47:41.882Z,10.30
2019-02-16T17:50:08.724Z,11.03
2019-02-16T17:52:35.971Z,11.20
2019-02-16T17:55:02.724Z,10.70
2019-02-16T17:57:29.558Z,11.33
2019-02-16T17:59:56.074Z,11.93
2019-02-16T18:02:23.775Z,11.03
2019-02-16T18:04:51.518Z,11.63
2019-02-16T18:07:19.676Z,11.50
2019-02-16T18:09:47.829Z,11.50
2019-02-16T18:12:14.918Z,12.87
2019-02-16T18:14:41.391Z,12.73
2019-02-16T18:17:07.976Z,13.03
2019-02-16T18:19:34.837Z,12.90
2019-02-16T18:22:01.357Z,11.80
2019-02-16T18:24:28.211Z,12.33
2019-02-16T18:26:56.824Z,12.13
2019-02-16T18:29:22.902Z,10.87
2019-02-16T18:31:49.852Z,11.80
2019-02-16T18:34:16.486Z,14.63
2019-02-16T18:36:43.330Z,16.20
2019-02-16T18:39:10.164Z,14.27
2019-02-16T18:41:36.701Z,13.13
2019-02-16T18:44:03.249Z,13.83
2019-02-16T18:46:29.790Z,14.73
2019-02-16T18:48:56.609Z,15.23
2019-02-16T18:51:23.474Z,15.50
2019-02-16T18:53:50.005Z,14.90
2019-02-16T18:56:16.526Z,16.20
2019-02-16T18:58:43.058Z,16.90
2019-02-16T19:01:09.906Z,17.80
2019-02-16T19:03:36.437Z,17.40
2019-02-16T19:06:03.280Z,16.37
2019-02-16T19:08:30.270Z,16.67
2019-02-16T19:10:57.013Z,19.17
2019-02-16T19:13:23.801Z,17.83
2019-02-16T19:15:50.639Z,18.23
2019-02-16T19:18:18.146Z,18.90
2019-02-16T19:20:44.939Z,17.60
2019-02-16T19:23:11.477Z,17.07
2019-02-16T19:25:38.315Z,16.97
2019-02-16T19:28:05.843Z,17.30
2019-02-16T19:30:34.009Z,18.83
2019-02-16T19:33:00.994Z,17.27
2019-02-16T19:35:27.535Z,17.37
2019-02-16T19:37:54.365Z,18.17
2019-02-16T19:40:20.907Z,18.00
2019-02-16T19:42:48.012Z,17.87
2019-02-16T19:45:14.894Z,17.87
2019-02-16T19:47:41.731Z,18.07
2019-02-16T19:50:08.863Z,18.20
2019-02-16T19:52:36.000Z,17.67
2019-02-16T19:55:02.587Z,19.10
2019-02-16T19:57:29.100Z,16.90
2019-02-16T19:59:55.939Z,17.30
2019-02-16T20:02:22.781Z,17.97
2019-02-16T20:04:50.283Z,19.23
2019-02-16T20:07:17.085Z,18.57
2019-02-16T20:09:43.920Z,17.87
2019-02-16T20:12:10.456Z,18.37
2019-02-16T20:14:37.296Z,18.03
2019-02-16T20:17:03.834Z,19.33
2019-02-16T20:19:30.366Z,19.03
2019-02-16T20:21:56.906Z,20.30
2019-02-16T20:24:23.434Z,19.33
2019-02-16T20:26:50.582Z,19.33
2019-02-16T20:29:17.119Z,19.53
2019-02-16T20:31:43.653Z,19.67
2019-02-16T20:34:10.189Z,19.73
2019-02-16T20:36:36.724Z,19.87
2019-02-16T20:39:03.564Z,20.60
2019-02-16T20:41:30.405Z,21.07
2019-02-16T20:43:56.941Z,21.67
2019-02-16T20:46:23.471Z,22.80
2019-02-16T20:48:50.558Z,21.90
2019-02-16T20:51:17.156Z,21.57
2019-02-16T20:53:43.698Z,21.70
2019-02-16T20:56:10.537Z,22.70
2019-02-16T20:58:37.071Z,22.63
2019-02-16T21:01:03.605Z,23.77
2019-02-16T21:03:30.446Z,23.83
2019-02-16T21:05:56.976Z,23.57
2019-02-16T21:08:23.516Z,23.57
2019-02-16T21:10:50.379Z,24.87
2019-02-16T21:13:16.889Z,24.50
2019-02-16T21:15:43.733Z,24.97
2019-02-16T21:18:10.264Z,24.63
2019-02-16T21:20:36.806Z,25.07
2019-02-16T21:23:03.640Z,25.53
2019-02-16T21:25:30.487Z,25.40
2019-02-16T21:27:58.270Z,24.53
2019-02-16T21:30:25.214Z,26.63
2019-02-16T21:32:51.927Z,27.03
2019-02-16T21:35:18.465Z,26.73
2019-02-16T21:37:46.333Z,26.80
2019-02-16T21:40:13.374Z,27.13
2019-02-16T21:42:39.929Z,26.73
2019-02-16T21:45:07.386Z,26.77
2019-02-16T21:47:34.554Z,29.17
2019-02-16T21:50:01.674Z,28.60
2019-02-16T21:52:28.510Z,28.87
2019-02-16T21:54:56.533Z,28.93
2019-02-16T21:57:23.415Z,29.60
2019-02-16T21:59:49.949Z,28.10
2019-02-16T22:02:17.499Z,31.13
2019-02-16T22:04:44.260Z,30.27
2019-02-16T22:07:11.619Z,29.83
2019-02-16T22:09:38.545Z,29.17
2019-02-16T22:12:05.083Z,29.93
2019-02-16T22:14:31.614Z,31.67
2019-02-16T22:16:58.462Z,31.63
2019-02-16T22:19:25.813Z,31.57
2019-02-16T22:21:52.446Z,30.30
2019-02-16T22:24:18.980Z,29.20
2019-02-16T22:26:47.051Z,29.07
2019-02-16T22:29:13.901Z,28.40
2019-02-16T22:31:40.426Z,27.67
2019-02-16T22:34:07.320Z,27.83
2019-02-16T22:36:35.505Z,28.70
2019-02-16T22:39:03.927Z,28.00
2019-02-16T22:41:30.870Z,30.87
2019-02-16T22:43:57.411Z,30.10
2019-02-16T22:46:25.907Z,30.27
2019-02-16T22:48:52.926Z,30.97
2019-02-16T22:51:19.466Z,29.67
2019-02-16T22:53:46.305Z,31.33
2019-02-16T22:56:12.835Z,32.17
2019-02-16T22:58:39.681Z,30.33
2019-02-16T23:01:06.216Z,32.23
2019-02-16T23:03:33.975Z,33.27
2019-02-16T23:06:01.224Z,31.23
2019-02-16T23:08:28.274Z,32.90
2019-02-16T23:10:54.816Z,32.60
2019-02-16T23:13:21.350Z,33.50
2019-02-16T23:15:48.184Z,32.13
2019-02-16T23:18:15.039Z,32.77
2019-02-16T23:20:43.051Z,33.77
2019-02-16T23:23:11.159Z,33.47
2019-02-16T23:25:37.703Z,33.53
2019-02-16T23:28:04.253Z,32.90
2019-02-16T23:33:16.977Z,32.73
2019-02-16T23:35:43.795Z,34.83
2019-02-16T23:38:10.342Z,34.03
2019-02-16T23:40:37.184Z,33.17
2019-02-16T23:43:03.723Z,34.47
2019-02-16T23:45:30.558Z,31.73
2019-02-16T23:47:57.399Z,31.60
2019-02-16T23:50:23.935Z,31.13
2019-02-16T23:52:50.475Z,30.77
2019-02-16T23:55:17.505Z,29.80
2019-02-16T23:57:44.160Z,28.37
